Terminal Aerodrome Forecast
Issued by NWS

Home | Current Version | Previous Version | Text Only | Print | Product List | Glossary On
Versions: 1 2 3 4 5 6 7 8 9 10 11 12 13 14 15
850
FTUS43 KOAX 312321
TAFBFF
TAF
KBFF 312321Z 0100/0124 12014KT P6SM SCT050
     FM010100 13012KT P6SM FEW050
     FM011000 12015KT 1SM BR BKN007 OVC015
     FM011600 14018G25KT P6SM SCT030
     FM011800 15020G28KT P6SM FEW050=

USA.gov is the U.S. government's official web portal to all federal, state and local government web resources and services.